Latest Coastal Weather Observations for Cape Nelson

IDS60701

Issued at 7:25 pm CDT Saturday 25 October 2014 (issued every 10 minutes, with the page automatically refreshed every 10 minutes)

About coastal observations | Map of coastal stations | Coastal observations for SA | Marine services | Other Formats
Station Details ID: 090184 Name: CAPE NELSON LIGHTHOUSE Lat: -38.43 Lon: 141.54 Height: 45.4 m
Data from the previous 72 hours. | See also: Recent months at Cape Nelson
Date/Time
CDT
Temp

°C
Wind Pressure Rain
since 9am
mm
Weather Cloud Vis
km
Sea
Height
m
Swell
Dir
 
Speed
knots
Gust
knots
hPa Trend Height
m
Period
s
Dir
25/07:00pm 13.1 ESE 7 11 1016.7 - 0.0 - - - - - - -
25/06:30pm 13.5 SSE 7 9 1017.0 - 0.0 - - - - - - -
25/06:00pm 13.8 SE 8 11 1016.6 - 0.0 - - - - - - -
25/05:30pm 14.1 SE 7 10 1016.6 - 0.0 - - - - - - -
25/05:00pm 14.2 SE 8 11 1016.5 - 0.0 - - - - - - -
25/04:30pm 14.4 SE 8 11 1016.8 - 0.0 - - - - - - -
25/04:00pm 14.6 ESE 9 14 1016.1 - 0.0 - - - - - - -
25/03:30pm 14.6 SSE 11 14 1016.8 - 0.0 - - - - - - -
25/03:00pm 14.3 SSE 12 15 1016.8 - 0.0 - - - - - - -
25/02:30pm 14.6 SSE 12 15 1017.0 - 0.0 - - - - - - -
25/02:00pm 16.0 SE 9 13 1017.2 - 0.0 - - - - - - -
25/01:30pm 16.2 SE 8 10 1017.4 - 0.0 - - - - - - -
25/01:00pm 14.1 SE 7 9 1017.8 - 0.0 - - - - - - -
25/12:30pm 13.6 SE 9 13 1017.8 - 0.0 - - - - - - -
25/12:00pm 14.6 E 5 7 1018.1 - 0.0 - - - - - - -
25/11:30am 14.6 ESE 7 11 1018.2 - 0.0 - - - - - - -
25/11:00am 14.7 SSE 9 13 1018.3 - 0.0 - - - - - - -
25/10:30am 14.1 SSE 10 13 1018.1 - 0.0 - - - - - - -
25/10:00am 14.3 ESE 7 12 1017.7 - 0.0 - - - - - - -
25/09:30am 13.6 ESE 7 10 1017.8 - 0.0 - - - - - - -
25/09:00am 13.8 ESE 8 12 1017.9 - 0.0 - - - - - - -
25/08:30am 13.5 ESE 7 10 1018.4 - 0.2 - - - - - - -
25/08:00am 13.0 ESE 7 10 1018.1 - 0.2 - - - - - - -
25/07:30am 12.7 SE 7 10 1018.0 - 0.2 - - - - - - -
25/07:00am 12.2 SE 8 10 1017.7 - 0.2 - - - - - - -
25/06:30am 12.0 SE 7 9 1017.2 - 0.2 - - - - - - -
25/06:00am 12.1 ESE 7 11 1017.2 - 0.2 - - - - - - -
25/05:30am 12.5 SE 7 11 1016.9 - 0.0 - - - - - - -
25/05:00am 12.3 E 8 12 1016.8 - 0.0 - - - - - - -
25/04:30am 13.1 SE 9 13 1016.6 - 0.0 - - - - - - -
25/04:00am 13.1 SSE 5 8 1016.4 - 0.0 - - - - - - -
25/03:30am 13.2 SE 5 8 1016.5 - 0.0 - - - - - - -
25/03:00am 13.3 S 6 10 1016.2 - 0.0 - - - - - - -
25/02:30am 13.3 SSE 8 12 1016.2 - 0.0 - - - - - - -
25/02:00am 13.5 SSE 6 8 1016.4 - 0.0 - - - - - - -
25/01:30am 13.5 S 8 11 1016.6 - 0.0 - - - - - - -
25/01:00am 13.9 S 6 8 1016.8 - 0.0 - - - - - - -
25/12:30am 13.8 S 9 14 1017.1 - 0.0 - - - - - - -
25/12:00am 13.9 S 8 13 1017.2 - 0.0 - - - - - - -
 
Date/Time
CDT
Temp

°C
Wind Pressure Rain
since 9am
mm
Weather Cloud Vis
km
Sea
Height
m
Swell
Dir
 
Speed
knots
Gust
knots
hPa Trend Height
m
Period
s
Dir
24/11:30pm 13.9 S 9 16 1016.9 - 0.0 - - - - - - -
24/11:00pm 13.9 S 10 16 1016.7 - 0.0 - - - - - - -
24/10:30pm 13.8 ENE 7 12 1016.7 - 0.0 - - - - - - -
24/10:00pm 13.8 NNW 6 11 1016.7 - 0.0 - - - - - - -
24/09:30pm 13.8 NNE 7 15 1016.4 - 0.0 - - - - - - -
24/09:00pm 13.6 W 10 14 1016.1 - 0.0 - - - - - - -
24/08:30pm 13.9 W 12 17 1015.8 - 0.0 - - - - - - -
24/08:00pm 14.2 W 13 17 1015.4 - 0.0 - - - - - - -
24/07:30pm 14.0 W 15 21 1015.1 - 0.0 - - - - - - -
24/07:00pm 14.3 W 14 20 1014.6 - 0.0 - - - - - - -
24/06:30pm 14.2 W 16 21 1014.2 - 0.0 - - - - - - -
24/06:00pm 14.6 W 12 20 1013.9 - 0.0 - - - - - - -
24/05:30pm 14.6 W 13 19 1013.5 - 0.0 - - - - - - -
24/05:00pm 14.9 WNW 17 25 1013.3 - 0.0 - - - - - - -
24/04:36pm 14.9 W 15 25 1013.2 - 0.0 - - - - - - -
24/04:30pm 14.7 W 17 25 1013.1 - 0.0 - - - - - - -
24/04:00pm 14.8 W 15 23 1012.9 - 0.0 - - - - - - -
24/03:30pm 15.7 W 17 27 1012.5 - 0.0 - - - - - - -
24/03:24pm 15.7 W 17 27 1012.5 - 0.0 - - - - - - -
24/03:00pm 15.6 W 23 30 1012.4 - 0.0 - - - - - - -
24/02:30pm 16.2 WNW 19 30 1012.3 - 0.0 - - - - - - -
24/02:26pm 16.2 WNW 18 30 1012.3 - 0.0 - - - - - - -
24/02:00pm 16.0 WNW 18 24 1012.4 - 0.0 - - - - - - -
24/01:30pm 17.0 WNW 17 22 1012.2 - 0.0 - - - - - - -
24/01:00pm 16.0 WNW 20 25 1012.1 - 0.0 - - - - - - -
24/12:30pm 15.9 WNW 18 23 1012.1 - 0.0 - - - - - - -
24/12:00pm 15.1 WNW 16 21 1012.5 - 0.0 - - - - - - -
24/11:30am 14.9 WNW 17 25 1012.6 - 0.0 - - - - - - -
24/11:00am 15.2 WNW 18 25 1012.7 - 0.0 - - - - - - -
24/10:30am 17.8 WNW 16 22 1012.4 - 0.0 - - - - - - -
24/10:00am 18.1 WNW 15 21 1012.4 - 0.0 - - - - - - -
24/09:48am 17.5 WNW 17 23 1012.5 - 0.0 - - - - - - -
24/09:30am 17.4 WNW 10 13 1011.3 - 0.0 - - - - - - -
24/09:00am 17.3 NW 10 14 1011.6 - 0.0 - - - - - - -
24/08:30am 15.9 NW 7 10 1011.7 - 0.0 - - - - - - -
24/08:00am 14.7 NW 4 6 1011.8 - 0.0 - - - - - - -
24/07:30am 14.6 N 7 10 1011.7 - 0.0 - - - - - - -
24/07:00am 14.3 NNE 7 9 1011.6 - 0.0 - - - - - - -
24/06:30am 14.2 NE 7 10 1011.4 - 0.0 - - - - - - -
24/06:00am 14.3 NE 9 11 1011.3 - 0.0 - - - - - - -
24/05:30am 14.4 NE 8 12 1011.2 - 0.0 - - - - - - -
24/05:00am 14.6 ENE 9 13 1011.4 - 0.0 - - - - - - -
24/04:30am 14.7 NE 9 12 1011.4 - 0.0 - - - - - - -
24/04:00am 14.8 NE 8 11 1011.7 - 0.0 - - - - - - -
24/03:30am 15.0 NE 9 12 1011.8 - 0.0 - - - - - - -
24/03:00am 15.2 ENE 8 12 1011.9 - 0.0 - - - - - - -
24/02:30am 15.3 ENE 14 19 1012.2 - 0.0 - - - - - - -
24/02:00am 15.3 ENE 15 19 1012.5 - 0.0 - - - - - - -
24/01:30am 15.3 ENE 16 22 1012.8 - 0.0 - - - - - - -
24/01:00am 15.3 ENE 17 23 1013.4 - 0.0 - - - - - - -
24/12:30am 15.2 E 16 22 1013.6 - 0.0 - - - - - - -
24/12:00am 15.0 E 17 24 1013.7 - 0.0 - - - - - - -
 
Date/Time
CDT
Temp

°C
Wind Pressure Rain
since 9am
mm
Weather Cloud Vis
km
Sea
Height
m
Swell
Dir
 
Speed
knots
Gust
knots
hPa Trend Height
m
Period
s
Dir
23/11:30pm 14.9 ENE 15 22 1014.3 - 0.0 - - - - - - -
23/11:00pm 14.7 E 15 22 1014.8 - 0.0 - - - - - - -
23/10:30pm 14.6 E 14 19 1014.9 - 0.0 - - - - - - -
23/10:00pm 14.7 ENE 14 18 1015.4 - 0.0 - - - - - - -
23/09:30pm 14.6 E 13 19 1015.1 - 0.0 - - - - - - -
23/09:00pm 14.6 E 12 17 1015.5 - 0.0 - - - - - - -
23/08:30pm 14.6 E 11 15 1015.5 - 0.0 - - - - - - -
23/08:00pm 14.4 E 11 14 1015.5 - 0.0 - - - - - - -
23/07:30pm 14.3 E 10 13 1015.5 - 0.0 - - - - - - -
23/07:00pm 14.0 E 10 13 1016.0 - 0.0 - - - - - - -
23/06:30pm 14.2 E 12 16 1016.1 - 0.0 - - - - - - -
23/06:00pm 14.5 ESE 11 16 1016.0 - 0.0 - - - - - - -
23/05:30pm 14.6 ESE 10 14 1016.2 - 0.0 - - - - - - -
23/05:00pm 14.7 ESE 11 16 1016.2 - 0.0 - - - - - - -
23/04:30pm 14.6 E 12 17 1016.3 - 0.0 - - - - - - -
23/04:00pm 14.6 ESE 11 15 1016.5 - 0.0 - - - - - - -
23/03:30pm 14.7 ESE 10 16 1016.7 - 0.0 - - - - - - -
23/03:00pm 14.7 SE 10 15 1017.6 - 0.0 - - - - - - -
23/02:30pm 14.5 ESE 10 15 1017.7 - 0.0 - - - - - - -
23/02:00pm 14.3 ESE 11 17 1018.0 - 0.0 - - - - - - -
23/01:30pm 14.4 E 16 20 1018.3 - 0.0 - - - - - - -
23/01:00pm 14.0 E 15 21 1018.7 - 0.0 - - - - - - -
23/12:30pm 14.0 ESE 12 19 1019.2 - 0.0 - - - - - - -
23/12:00pm 13.8 ESE 13 19 1019.6 - 0.0 - - - - - - -
23/11:30am 13.5 ESE 13 23 1019.8 - 0.0 - - - - - - -
23/11:00am 13.6 ESE 14 22 1020.1 - 0.0 - - - - - - -
23/10:30am 13.3 E 15 20 1020.5 - 0.0 - - - - - - -
23/10:00am 13.4 ESE 14 21 1020.7 - 0.0 - - - - - - -
23/09:30am 13.0 ESE 15 23 1020.8 - 0.0 - - - - - - -
23/09:00am 12.9 ESE 15 23 1020.9 - 0.0 - - - - - - -
23/08:30am 13.0 ESE 13 21 1021.1 - 0.0 - - - - - - -
23/08:00am 12.8 ESE 13 20 1021.1 - 0.0 - - - - - - -
23/07:30am 12.5 ESE 14 23 1021.0 - 0.0 - - - - - - -
23/07:11am 12.7 SE 15 26 1021.0 - 0.0 - - - - - - -
23/07:00am 12.8 SE 16 23 1020.9 - 0.0 - - - - - - -
23/06:30am 12.8 SE 13 21 1020.8 - 0.0 - - - - - - -
23/06:00am 12.9 SE 16 22 1020.6 - 0.0 - - - - - - -
23/05:30am 13.1 SE 15 21 1020.5 - 0.0 - - - - - - -
23/05:00am 13.2 SE 14 20 1020.4 - 0.0 - - - - - - -
23/04:30am 13.1 SE 15 21 1020.3 - 0.0 - - - - - - -
23/04:00am 12.9 SE 13 19 1020.4 - 0.0 - - - - - - -
23/03:30am 13.2 ESE 13 22 1020.5 - 0.0 - - - - - - -
23/03:00am 13.1 SE 13 20 1020.5 - 0.0 - - - - - - -
23/02:30am 13.3 SE 16 21 1020.8 - 0.0 - - - - - - -
23/02:00am 13.2 SSE 14 20 1020.9 - 0.0 - - - - - - -
23/01:30am 13.2 SSE 15 20 1020.8 - 0.0 - - - - - - -
23/01:00am 13.0 SSE 14 18 1020.9 - 0.0 - - - - - - -
23/12:30am 13.2 SE 12 16 1021.3 - 0.0 - - - - - - -
23/12:00am 13.0 SE 17 21 1021.4 - 0.0 - - - - - - -
 
Date/Time
CDT
Temp

°C
Wind Pressure Rain
since 9am
mm
Weather Cloud Vis
km
Sea
Height
m
Swell
Dir
 
Speed
knots
Gust
knots
hPa Trend Height
m
Period
s
Dir
22/11:30pm 13.2 SE 14 19 1021.4 - 0.0 - - - - - - -
22/11:00pm 13.2 SE 13 19 1021.3 - 0.0 - - - - - - -
22/10:30pm 13.4 SSE 15 21 1021.3 - 0.0 - - - - - - -
22/10:00pm 13.3 SSE 15 20 1021.2 - 0.0 - - - - - - -
22/09:30pm 13.6 SSE 14 18 1021.1 - 0.0 - - - - - - -
22/09:00pm 13.5 SE 15 23 1021.1 - 0.0 - - - - - - -
22/08:30pm 13.4 SSE 16 21 1021.0 - 0.0 - - - - - - -
22/08:00pm 13.5 SSE 18 22 1020.6 - 0.0 - - - - - - -
22/07:30pm 13.5 SSE 17 23 1020.1 - 0.0 - - - - - - -
22/07:00pm 13.6 S 19 27 1019.5 - 0.0 - - - - - - -

Other Formats:

Comma delimited format used in spreadsheet applications
http://www.bom.gov.au/fwo/IDS60701/IDS60701.94826.axf

JavaScript Object Notation format (JSON) in row-major order
http://www.bom.gov.au/fwo/IDS60701/IDS60701.94826.json